createdAt,value
2023-01-15T00:00:40.534Z,8.20
2023-01-15T00:03:42.677Z,8.20
2023-01-15T00:06:44.973Z,8.20
2023-01-15T00:09:46.962Z,8.30
2023-01-15T00:12:49.225Z,8.30
2023-01-15T00:15:51.464Z,8.40
2023-01-15T00:19:04.605Z,8.30
2023-01-15T00:22:06.842Z,8.30
2023-01-15T00:25:32.404Z,8.30
2023-01-15T00:28:34.460Z,8.40
2023-01-15T00:31:36.863Z,8.40
2023-01-15T00:34:38.901Z,8.40
2023-01-15T00:37:42.230Z,8.30
2023-01-15T00:40:46.381Z,8.30
2023-01-15T00:43:48.484Z,8.30
2023-01-15T00:46:50.476Z,8.40
2023-01-15T00:49:53.535Z,8.30
2023-01-15T00:52:55.594Z,8.40
2023-01-15T00:55:57.642Z,8.30
2023-01-15T00:59:02.289Z,8.30
2023-01-15T01:02:04.394Z,8.30
2023-01-15T01:05:06.789Z,8.30
2023-01-15T01:08:08.752Z,8.30
2023-01-15T01:11:13.027Z,8.30
2023-01-15T01:14:17.941Z,8.30
2023-01-15T01:17:22.653Z,8.40
2023-01-15T01:20:26.908Z,8.40
2023-01-15T01:23:29.757Z,8.30
2023-01-15T01:26:31.991Z,8.30
2023-01-15T01:29:34.125Z,8.30
2023-01-15T01:32:36.090Z,8.30
2023-01-15T01:35:38.035Z,8.30
2023-01-15T01:38:39.956Z,8.30
2023-01-15T01:41:42.431Z,8.30
2023-01-15T01:44:44.298Z,8.20
2023-01-15T01:47:47.071Z,8.20
2023-01-15T01:50:51.118Z,8.20
2023-01-15T01:53:53.610Z,8.30
2023-01-15T01:56:55.860Z,8.20
2023-01-15T01:59:59.421Z,8.20
2023-01-15T02:03:02.874Z,8.20
2023-01-15T02:06:08.715Z,8.20
2023-01-15T02:09:10.814Z,8.20
2023-01-15T02:12:21.461Z,8.10
2023-01-15T02:15:40.772Z,8.10
2023-01-15T02:18:52.170Z,8.10
2023-01-15T02:22:11.353Z,8.10
2023-01-15T02:25:43.142Z,8.10
2023-01-15T02:28:48.628Z,8.10
2023-01-15T02:31:52.453Z,8.10
2023-01-15T02:35:00.599Z,8.10
2023-01-15T02:38:07.197Z,8.10
2023-01-15T02:41:17.656Z,8.10
2023-01-15T02:44:23.312Z,8.10
2023-01-15T02:47:29.300Z,8.00
2023-01-15T02:50:39.602Z,8.00
2023-01-15T02:53:45.819Z,8.00
2023-01-15T02:56:50.048Z,8.00
2023-01-15T02:59:54.717Z,8.00
2023-01-15T03:03:12.730Z,8.00
2023-01-15T03:06:22.224Z,8.00
2023-01-15T03:09:24.589Z,8.00
2023-01-15T03:12:28.521Z,7.90
2023-01-15T03:16:05.203Z,7.90
2023-01-15T03:19:36.657Z,8.00
2023-01-15T03:22:44.344Z,8.00
2023-01-15T03:25:49.522Z,7.90
2023-01-15T03:28:52.409Z,7.90
2023-01-15T03:31:54.452Z,7.90
2023-01-15T03:34:57.067Z,7.90
2023-01-15T03:37:59.243Z,7.90
2023-01-15T03:41:19.900Z,7.90
2023-01-15T03:44:27.908Z,7.90
2023-01-15T03:47:42.798Z,7.80
2023-01-15T03:50:53.050Z,7.90
2023-01-15T03:53:58.035Z,7.80
2023-01-15T03:57:27.671Z,7.90
2023-01-15T04:00:42.586Z,7.90
2023-01-15T04:03:46.174Z,7.90
2023-01-15T04:06:48.191Z,7.90
2023-01-15T04:09:50.692Z,7.80
2023-01-15T04:12:52.610Z,7.80
2023-01-15T04:15:55.337Z,7.80
2023-01-15T04:18:57.993Z,7.80
2023-01-15T04:22:00.600Z,7.80
2023-01-15T04:25:04.229Z,7.80
2023-01-15T04:28:06.540Z,7.80
2023-01-15T04:31:08.857Z,7.80
2023-01-15T04:34:11.138Z,7.80
2023-01-15T04:37:13.171Z,7.80
2023-01-15T04:40:33.694Z,7.80
2023-01-15T04:43:53.963Z,7.80
2023-01-15T04:46:57.601Z,7.80
2023-01-15T04:49:59.617Z,7.80
2023-01-15T04:53:01.609Z,7.80
2023-01-15T04:56:05.431Z,7.80
2023-01-15T04:59:08.097Z,7.80
2023-01-15T05:02:10.182Z,7.80
2023-01-15T05:05:12.220Z,7.80
2023-01-15T05:08:16.945Z,7.80
2023-01-15T05:11:19.274Z,7.80
2023-01-15T05:14:21.443Z,7.80
2023-01-15T05:17:23.362Z,7.70
2023-01-15T05:20:25.854Z,7.70
2023-01-15T05:23:27.803Z,7.80
2023-01-15T05:26:32.191Z,7.70
2023-01-15T05:29:34.135Z,7.60
2023-01-15T05:32:38.672Z,7.50
2023-01-15T05:35:40.670Z,7.50
2023-01-15T05:38:43.017Z,7.60
2023-01-15T05:41:53.701Z,7.60
2023-01-15T05:44:57.087Z,7.50
2023-01-15T05:47:59.095Z,7.50
2023-01-15T05:51:02.527Z,7.50
2023-01-15T05:54:06.710Z,7.50
2023-01-15T05:57:13.241Z,7.50
2023-01-15T06:00:15.855Z,7.50
2023-01-15T06:03:21.149Z,7.50
2023-01-15T06:06:23.400Z,7.50
2023-01-15T06:09:27.932Z,7.50
2023-01-15T06:12:30.026Z,7.50
2023-01-15T06:15:31.974Z,7.50
2023-01-15T06:18:35.625Z,7.50
2023-01-15T06:21:37.649Z,7.50
2023-01-15T06:24:39.686Z,7.50
2023-01-15T06:27:44.757Z,7.40
2023-01-15T06:30:46.820Z,7.50
2023-01-15T06:33:48.902Z,7.40
2023-01-15T06:36:51.040Z,7.40
2023-01-15T06:39:53.109Z,7.40
2023-01-15T06:43:17.348Z,7.40
2023-01-15T06:46:37.820Z,7.30
2023-01-15T06:49:39.953Z,7.30
2023-01-15T06:52:46.622Z,7.30
2023-01-15T06:55:51.886Z,7.30
2023-01-15T06:58:56.136Z,7.30
2023-01-15T07:01:58.488Z,7.30
2023-01-15T07:05:00.694Z,7.30
2023-01-15T07:08:06.126Z,7.30
2023-01-15T07:11:12.417Z,7.20
2023-01-15T07:14:26.514Z,7.10
2023-01-15T07:17:31.296Z,7.10
2023-01-15T07:20:36.693Z,6.90
2023-01-15T07:23:41.653Z,6.80
2023-01-15T07:26:45.638Z,6.90
2023-01-15T07:29:50.903Z,6.80
2023-01-15T07:32:54.679Z,6.90
2023-01-15T07:35:58.758Z,6.90
2023-01-15T07:39:00.930Z,6.90
2023-01-15T07:42:21.346Z,6.90
2023-01-15T07:45:41.902Z,6.90
2023-01-15T07:49:02.348Z,6.90
2023-01-15T07:52:06.902Z,7.00
2023-01-15T07:55:10.329Z,7.10
2023-01-15T07:58:13.686Z,7.00
2023-01-15T08:01:15.915Z,7.00
2023-01-15T08:04:18.279Z,7.00
2023-01-15T08:07:20.440Z,7.00
2023-01-15T08:10:22.402Z,7.00
2023-01-15T08:13:43.835Z,7.00
2023-01-15T08:16:45.942Z,6.90
2023-01-15T08:19:48.348Z,6.90
2023-01-15T08:22:50.588Z,6.90
2023-01-15T08:25:54.840Z,6.90
2023-01-15T08:28:56.918Z,6.80
2023-01-15T08:31:58.852Z,6.80
2023-01-15T08:35:00.861Z,6.80
2023-01-15T08:38:07.625Z,6.80
2023-01-15T08:41:11.863Z,6.80
2023-01-15T08:44:14.053Z,6.80
2023-01-15T08:47:17.355Z,6.80
2023-01-15T08:50:19.149Z,6.80
2023-01-15T08:53:24.521Z,6.70
2023-01-15T08:56:26.541Z,6.70
2023-01-15T09:02:56.473Z,6.80
2023-01-15T09:06:03.020Z,6.80
2023-01-15T09:09:06.909Z,6.80
2023-01-15T09:12:14.641Z,6.90
2023-01-15T09:15:21.842Z,7.00
2023-01-15T09:18:34.508Z,7.10
2023-01-15T09:22:21.617Z,7.20
2023-01-15T09:25:54.825Z,7.20
2023-01-15T09:29:33.195Z,7.30
2023-01-15T09:32:32.695Z,7.20
2023-01-15T09:35:35.110Z,7.30
2023-01-15T09:38:40.522Z,7.30
2023-01-15T09:49:33.984Z,7.40
2023-01-15T09:52:53.815Z,7.40
2023-01-15T09:55:58.360Z,7.50
2023-01-15T10:02:40.937Z,7.60
2023-01-15T10:05:56.624Z,7.60
2023-01-15T10:09:10.004Z,7.70
2023-01-15T10:12:39.814Z,7.80
2023-01-15T10:15:47.436Z,7.90
2023-01-15T10:18:49.842Z,7.90
2023-01-15T10:22:15.100Z,8.00
2023-01-15T10:25:42.674Z,8.00
2023-01-15T10:29:03.217Z,8.00
2023-01-15T10:33:04.056Z,8.00
2023-01-15T10:36:28.214Z,7.90
2023-01-15T10:39:54.551Z,7.80
2023-01-15T10:52:18.161Z,7.60
2023-01-15T11:26:14.889Z,7.40
2023-01-15T11:29:32.930Z,7.40
2023-01-15T11:32:57.889Z,7.40
2023-01-15T11:40:31.685Z,7.40
2023-01-15T11:43:52.286Z,7.50
2023-01-15T11:47:14.742Z,7.60
2023-01-15T11:50:52.366Z,7.60
2023-01-15T11:54:07.107Z,7.70
2023-01-15T11:57:14.857Z,7.70
2023-01-15T12:00:32.885Z,7.70
2023-01-15T12:03:43.608Z,7.80
2023-01-15T12:10:39.758Z,7.90
2023-01-15T12:14:19.076Z,8.00
2023-01-15T12:17:44.342Z,8.00
2023-01-15T12:21:14.919Z,8.00
2023-01-15T12:32:27.263Z,8.20
2023-01-15T12:36:04.763Z,8.30
2023-01-15T12:39:40.442Z,8.30
2023-01-15T12:43:38.299Z,8.20
2023-01-15T12:47:16.953Z,8.20
2023-01-15T12:58:40.910Z,8.20
2023-01-15T13:22:30.567Z,8.00
2023-01-15T13:25:58.553Z,8.00
2023-01-15T13:29:12.457Z,7.90
2023-01-15T13:32:31.428Z,7.90
2023-01-15T13:35:44.199Z,7.90
2023-01-15T13:38:50.529Z,7.90
2023-01-15T13:42:12.415Z,7.90
2023-01-15T13:45:44.007Z,7.90
2023-01-15T13:48:49.928Z,7.90
2023-01-15T13:51:51.973Z,7.80
2023-01-15T13:54:57.143Z,7.90
2023-01-15T13:57:59.333Z,7.80
2023-01-15T14:01:06.371Z,7.80
2023-01-15T14:04:15.743Z,7.80
2023-01-15T14:07:36.056Z,7.80
2023-01-15T14:10:41.127Z,7.90
2023-01-15T14:14:15.388Z,7.80
2023-01-15T14:17:28.271Z,7.80
2023-01-15T14:20:48.879Z,7.80
2023-01-15T14:24:09.254Z,7.70
2023-01-15T14:27:21.706Z,7.70
2023-01-15T14:30:44.614Z,7.70
2023-01-15T14:33:59.111Z,7.70
2023-01-15T14:37:08.215Z,7.70
2023-01-15T14:41:15.675Z,7.70
2023-01-15T14:44:27.109Z,7.70
2023-01-15T14:47:44.546Z,7.70
2023-01-15T14:50:55.816Z,7.70
2023-01-15T14:54:23.352Z,7.70
2023-01-15T14:57:31.043Z,7.70
2023-01-15T15:00:38.330Z,7.80
2023-01-15T15:03:52.265Z,7.80
2023-01-15T15:07:03.002Z,7.80
2023-01-15T15:10:21.714Z,7.70
2023-01-15T15:13:46.842Z,7.80
2023-01-15T15:16:57.783Z,7.70
2023-01-15T15:20:26.003Z,7.70
2023-01-15T15:24:02.495Z,7.70
2023-01-15T15:27:25.262Z,7.70
2023-01-15T15:30:36.167Z,7.70
2023-01-15T15:33:42.924Z,7.70
2023-01-15T15:36:51.197Z,7.70
2023-01-15T15:40:10.844Z,7.70
2023-01-15T15:43:38.695Z,7.70
2023-01-15T15:47:11.822Z,7.70
2023-01-15T15:50:32.015Z,7.60
2023-01-15T15:53:34.050Z,7.70
2023-01-15T15:56:36.561Z,7.70
2023-01-15T15:59:51.270Z,7.60
2023-01-15T16:02:53.577Z,7.60
2023-01-15T16:05:56.797Z,7.50
2023-01-15T16:09:04.976Z,7.40
2023-01-15T16:12:08.840Z,7.40
2023-01-15T16:15:24.005Z,7.40
2023-01-15T16:18:46.633Z,7.40
2023-01-15T16:21:52.007Z,7.30
2023-01-15T16:25:04.010Z,7.30
2023-01-15T16:28:07.089Z,7.20
2023-01-15T16:31:13.045Z,7.30
2023-01-15T16:34:21.274Z,7.20
2023-01-15T16:37:30.859Z,7.20
2023-01-15T16:40:38.258Z,7.20
2023-01-15T16:43:53.423Z,7.10
2023-01-15T16:46:59.236Z,7.10
2023-01-15T16:50:26.097Z,7.10
2023-01-15T16:53:41.610Z,7.10
2023-01-15T16:56:43.425Z,7.10
2023-01-15T16:59:47.768Z,7.00
2023-01-15T17:02:52.161Z,7.00
2023-01-15T17:06:03.118Z,7.00
2023-01-15T17:09:09.286Z,7.00
2023-01-15T17:12:24.539Z,6.90
2023-01-15T17:15:28.017Z,7.00
2023-01-15T17:18:37.738Z,6.90
2023-01-15T17:21:40.537Z,6.80
2023-01-15T17:24:57.214Z,6.80
2023-01-15T17:28:00.667Z,6.80
2023-01-15T17:31:08.545Z,6.80
2023-01-15T17:34:14.953Z,6.80
2023-01-15T17:37:21.708Z,6.80
2023-01-15T17:40:27.107Z,6.80
2023-01-15T17:43:29.551Z,6.90
2023-01-15T17:46:31.615Z,6.90
2023-01-15T17:49:36.028Z,6.90
2023-01-15T17:52:38.228Z,7.00
2023-01-15T17:55:58.731Z,6.90
2023-01-15T17:59:35.098Z,6.90
2023-01-15T18:03:01.727Z,6.90
2023-01-15T18:06:07.542Z,6.90
2023-01-15T18:09:09.756Z,6.90
2023-01-15T18:12:11.708Z,7.00
2023-01-15T18:15:17.272Z,7.00
2023-01-15T18:18:24.448Z,7.10
2023-01-15T18:21:31.804Z,7.10
2023-01-15T18:24:33.767Z,7.10
2023-01-15T18:27:38.229Z,7.10
2023-01-15T18:30:40.917Z,7.10
2023-01-15T18:33:42.801Z,7.20
2023-01-15T18:36:44.701Z,7.10
2023-01-15T18:39:46.560Z,7.20
2023-01-15T18:43:07.191Z,7.10
2023-01-15T18:46:27.800Z,7.20
2023-01-15T18:49:30.529Z,7.20
2023-01-15T18:52:50.400Z,7.20
2023-01-15T18:55:52.254Z,7.20
2023-01-15T18:58:56.597Z,7.20
2023-01-15T19:01:59.216Z,7.20
2023-01-15T19:05:01.274Z,7.30
2023-01-15T19:08:03.189Z,7.30
2023-01-15T19:11:49.532Z,7.30
2023-01-15T19:15:20.490Z,7.30
2023-01-15T19:18:48.484Z,7.30
2023-01-15T19:30:00.625Z,7.30
2023-01-15T19:33:02.854Z,7.30
2023-01-15T19:36:41.373Z,7.20
2023-01-15T19:39:43.277Z,7.20
2023-01-15T19:43:03.631Z,7.20
2023-01-15T19:46:27.292Z,7.20
2023-01-15T20:03:40.795Z,7.10
2023-01-15T20:06:42.776Z,7.10
2023-01-15T20:09:45.146Z,7.10
2023-01-15T20:13:05.583Z,7.10
2023-01-15T20:16:17.814Z,7.10
2023-01-15T20:19:19.924Z,7.10
2023-01-15T20:22:24.770Z,7.20
2023-01-15T20:25:28.152Z,7.10
2023-01-15T20:28:29.902Z,7.10
2023-01-15T20:31:34.055Z,7.00
2023-01-15T20:34:39.469Z,7.10
2023-01-15T20:37:41.776Z,7.10
2023-01-15T20:40:43.540Z,7.00
2023-01-15T20:44:04.161Z,7.00
2023-01-15T20:47:26.107Z,7.00
2023-01-15T20:50:33.322Z,7.00
2023-01-15T20:53:35.295Z,7.00
2023-01-15T20:56:37.323Z,7.00
2023-01-15T20:59:39.146Z,7.00
2023-01-15T21:02:41.594Z,7.00
2023-01-15T21:06:12.559Z,7.00
2023-01-15T21:09:17.003Z,6.90
2023-01-15T21:12:18.935Z,6.80
2023-01-15T21:15:21.019Z,6.80
2023-01-15T21:18:23.621Z,6.80
2023-01-15T21:21:25.477Z,6.80
2023-01-15T21:24:27.976Z,6.80
2023-01-15T21:27:32.438Z,6.80
2023-01-15T21:30:34.480Z,6.80
2023-01-15T21:33:36.882Z,6.80
2023-01-15T21:36:39.115Z,6.70
2023-01-15T21:39:41.938Z,6.70
2023-01-15T21:43:05.712Z,6.60
2023-01-15T21:46:07.555Z,6.70
2023-01-15T21:49:09.399Z,6.70
2023-01-15T21:52:17.544Z,6.70
2023-01-15T21:55:19.614Z,6.80
2023-01-15T21:58:21.531Z,6.70
2023-01-15T22:01:24.072Z,6.70
2023-01-15T22:04:33.835Z,6.70
2023-01-15T22:07:35.974Z,6.60
2023-01-15T22:10:37.805Z,6.60
2023-01-15T22:13:41.017Z,6.60
2023-01-15T22:16:44.452Z,6.60
2023-01-15T22:19:46.346Z,6.60
2023-01-15T22:22:48.996Z,6.60
2023-01-15T22:25:50.967Z,6.60
2023-01-15T22:28:53.538Z,6.60
2023-01-15T22:31:55.599Z,6.60
2023-01-15T22:34:57.546Z,6.60
2023-01-15T22:37:59.544Z,6.60
2023-01-15T22:41:01.700Z,6.60
2023-01-15T22:44:04.527Z,6.60
2023-01-15T22:47:06.936Z,6.60
2023-01-15T22:50:09.547Z,6.50
2023-01-15T22:53:11.493Z,6.50
2023-01-15T22:56:13.476Z,6.50
2023-01-15T22:59:16.396Z,6.50
2023-01-15T23:02:39.099Z,6.50
2023-01-15T23:05:41.137Z,6.50
2023-01-15T23:08:42.896Z,6.50
2023-01-15T23:11:46.260Z,6.50
2023-01-15T23:14:50.372Z,6.50
2023-01-15T23:17:52.453Z,6.50
2023-01-15T23:20:54.293Z,6.50
2023-01-15T23:23:57.448Z,6.50
2023-01-15T23:26:59.437Z,6.50
2023-01-15T23:30:01.240Z,6.50
2023-01-15T23:33:03.237Z,6.50
2023-01-15T23:36:07.133Z,6.50
2023-01-15T23:39:09.209Z,6.50
2023-01-15T23:42:30.065Z,6.50
2023-01-15T23:45:50.529Z,6.40
2023-01-15T23:48:52.338Z,6.40
2023-01-15T23:51:54.211Z,6.40
2023-01-15T23:54:56.184Z,6.30
2023-01-15T23:57:57.926Z,6.30
